createdAt,value
2022-09-23T00:13:50.002Z,16.18
2022-09-23T00:33:50.055Z,16.00
2022-09-23T00:53:50.041Z,16.00
2022-09-23T01:13:49.930Z,16.12
2022-09-23T01:33:49.947Z,16.06
2022-09-23T01:53:49.967Z,15.93
2022-09-23T02:13:50.009Z,16.18
2022-09-23T02:33:49.941Z,16.00
2022-09-23T02:53:49.950Z,16.00
2022-09-23T03:13:50.025Z,15.93
2022-09-23T03:33:49.998Z,15.87
2022-09-23T03:53:49.870Z,15.81
2022-09-23T04:13:49.897Z,16.00
2022-09-23T04:33:49.904Z,16.06
2022-09-23T04:53:49.923Z,15.93
2022-09-23T05:13:49.885Z,15.87
2022-09-23T05:33:49.861Z,15.81
2022-09-23T05:53:49.879Z,15.75
2022-09-23T06:13:49.921Z,15.68
2022-09-23T06:33:50.015Z,15.62
2022-09-23T06:53:49.828Z,15.56
2022-09-23T07:13:49.850Z,15.50
2022-09-23T07:33:49.880Z,15.68
2022-09-23T07:53:49.786Z,15.68
2022-09-23T08:13:49.807Z,15.87
2022-09-23T08:33:49.823Z,15.87
2022-09-23T08:53:49.847Z,16.06
2022-09-23T09:13:49.766Z,16.25
2022-09-23T09:33:49.786Z,16.31
2022-09-23T09:53:49.649Z,16.50
2022-09-23T10:13:49.664Z,16.56
2022-09-23T10:33:49.691Z,16.50
2022-09-23T10:53:49.626Z,16.50
2022-09-23T11:13:49.651Z,16.50
2022-09-23T11:33:49.580Z,16.50
2022-09-23T11:53:49.612Z,16.56
2022-09-23T12:13:49.531Z,16.56
2022-09-23T12:33:49.716Z,16.56
2022-09-23T12:53:49.621Z,16.56
2022-09-23T13:13:49.660Z,16.93
2022-09-23T13:33:49.541Z,17.06
2022-09-23T13:53:49.615Z,16.93
2022-09-23T14:13:49.518Z,17.18
2022-09-23T14:33:49.563Z,17.06
2022-09-23T14:53:49.506Z,17.06
2022-09-23T15:13:49.544Z,17.12
2022-09-23T15:33:49.465Z,17.00
2022-09-23T15:53:49.495Z,17.00
2022-09-23T16:13:49.297Z,17.00
2022-09-23T16:33:49.338Z,16.87
2022-09-23T16:53:49.238Z,16.87
2022-09-23T17:13:49.245Z,16.93
2022-09-23T17:33:49.205Z,17.00
2022-09-23T17:53:49.211Z,17.00
2022-09-23T18:13:49.122Z,16.87
2022-09-23T18:33:49.160Z,16.75
2022-09-23T18:53:49.161Z,16.62
2022-09-23T19:13:49.129Z,16.81
2022-09-23T19:33:49.059Z,16.75
2022-09-23T19:53:49.106Z,16.68
2022-09-23T20:13:49.138Z,16.62
2022-09-23T20:33:49.025Z,16.62
2022-09-23T20:53:49.076Z,16.68
2022-09-23T21:13:49.107Z,16.68
2022-09-23T21:33:48.981Z,16.50
2022-09-23T21:53:49.001Z,16.56
2022-09-23T22:13:48.918Z,16.37
2022-09-23T22:33:48.939Z,16.50
2022-09-23T22:53:48.997Z,16.50
2022-09-23T23:13:48.923Z,16.31
2022-09-23T23:33:48.894Z,16.43
2022-09-23T23:53:48.923Z,16.25
